Newark, Illinois
Current Conditions -  °F | °C
As of 2:15 PM on Saturday 20 Dec 2014 (Local Time) from KC09 Reporting Station
Overcast Overcast  
Wind Chill: 28°   Ceiling: 6500
Heat Index: 33°   Visibility: 10mi
Dew Point: 28°   Wind: 6mph
Humidity: 82%   Direction: 180°S
Pressure: 30.23"   Gusts: NA
Location:  41.54°N, 88.58°W
Report Text: KC09 202015Z AUTO 18005KT 10SM OVC065 01/M02 A3023 RMK AO2 T00061021
Loading
Personal Weather Stations






























Interactive Weather Map New forecast layout! Learn more

10-Day Weather Forecast

Advertisements
Track Severe Weather on mobile